sensor_id;sensor_type;location;lat;lon;timestamp;P1;durP1;ratioP1;P2;durP2;ratioP2
21800;SDS011;11062;51.164;16.924;2023-04-15T00:01:36;59.60;;;19.33;;
21800;SDS011;11062;51.164;16.924;2023-04-15T00:04:02;31.33;;;13.52;;
21800;SDS011;11062;51.164;16.924;2023-04-15T00:06:29;26.90;;;11.80;;
21800;SDS011;11062;51.164;16.924;2023-04-15T00:08:57;28.30;;;11.18;;
21800;SDS011;11062;51.164;16.924;2023-04-15T00:11:23;34.50;;;11.55;;
21800;SDS011;11062;51.164;16.924;2023-04-15T00:13:49;31.77;;;10.13;;
21800;SDS011;11062;51.164;16.924;2023-04-15T00:16:15;27.20;;;9.27;;
21800;SDS011;11062;51.164;16.924;2023-04-15T00:18:41;20.45;;;8.60;;
21800;SDS011;11062;51.164;16.924;2023-04-15T00:21:07;20.85;;;8.55;;
21800;SDS011;11062;51.164;16.924;2023-04-15T00:23:33;24.30;;;8.57;;
21800;SDS011;11062;51.164;16.924;2023-04-15T00:26:02;29.30;;;9.23;;
21800;SDS011;11062;51.164;16.924;2023-04-15T00:28:31;28.20;;;9.45;;
21800;SDS011;11062;51.164;16.924;2023-04-15T00:31:00;25.98;;;9.10;;
21800;SDS011;11062;51.164;16.924;2023-04-15T00:33:31;21.10;;;9.27;;
21800;SDS011;11062;51.164;16.924;2023-04-15T00:35:57;40.08;;;9.95;;
21800;SDS011;11062;51.164;16.924;2023-04-15T00:38:23;27.85;;;9.18;;
21800;SDS011;11062;51.164;16.924;2023-04-15T00:40:49;19.17;;;8.65;;
21800;SDS011;11062;51.164;16.924;2023-04-15T00:43:15;23.17;;;9.00;;
21800;SDS011;11062;51.164;16.924;2023-04-15T00:45:41;24.60;;;9.27;;
21800;SDS011;11062;51.164;16.924;2023-04-15T00:48:07;38.50;;;10.23;;
21800;SDS011;11062;51.164;16.924;2023-04-15T00:50:33;21.45;;;8.90;;
21800;SDS011;11062;51.164;16.924;2023-04-15T00:52:59;23.60;;;9.07;;
21800;SDS011;11062;51.164;16.924;2023-04-15T00:55:31;20.83;;;8.88;;
21800;SDS011;11062;51.164;16.924;2023-04-15T00:57:57;17.70;;;8.32;;
21800;SDS011;11062;51.164;16.924;2023-04-15T01:00:23;32.45;;;9.93;;
21800;SDS011;11062;51.164;16.924;2023-04-15T01:02:49;18.67;;;8.65;;
21800;SDS011;11062;51.164;16.924;2023-04-15T01:05:15;25.52;;;8.43;;
21800;SDS011;11062;51.164;16.924;2023-04-15T01:07:42;26.15;;;8.75;;
21800;SDS011;11062;51.164;16.924;2023-04-15T01:10:08;21.90;;;9.45;;
21800;SDS011;11062;51.164;16.924;2023-04-15T01:12:37;31.73;;;10.15;;
21800;SDS011;11062;51.164;16.924;2023-04-15T01:15:06;29.42;;;8.68;;
21800;SDS011;11062;51.164;16.924;2023-04-15T01:17:35;21.98;;;9.10;;
21800;SDS011;11062;51.164;16.924;2023-04-15T01:20:03;24.67;;;8.60;;
21800;SDS011;11062;51.164;16.924;2023-04-15T01:22:39;27.77;;;9.50;;
21800;SDS011;11062;51.164;16.924;2023-04-15T01:25:08;24.88;;;9.48;;
21800;SDS011;11062;51.164;16.924;2023-04-15T01:27:37;19.85;;;8.20;;
21800;SDS011;11062;51.164;16.924;2023-04-15T01:30:08;24.15;;;8.20;;
21800;SDS011;11062;51.164;16.924;2023-04-15T01:32:35;20.40;;;8.55;;
21800;SDS011;11062;51.164;16.924;2023-04-15T01:35:01;32.25;;;9.02;;
21800;SDS011;11062;51.164;16.924;2023-04-15T01:37:27;32.72;;;9.52;;
21800;SDS011;11062;51.164;16.924;2023-04-15T01:39:56;25.25;;;8.55;;
21800;SDS011;11062;51.164;16.924;2023-04-15T01:42:24;26.23;;;9.65;;
21800;SDS011;11062;51.164;16.924;2023-04-15T01:44:51;15.98;;;7.85;;
21800;SDS011;11062;51.164;16.924;2023-04-15T01:47:17;20.25;;;8.85;;
21800;SDS011;11062;51.164;16.924;2023-04-15T01:49:48;22.92;;;9.18;;
21800;SDS011;11062;51.164;16.924;2023-04-15T01:52:16;17.77;;;8.20;;
21800;SDS011;11062;51.164;16.924;2023-04-15T01:54:45;24.13;;;8.15;;
21800;SDS011;11062;51.164;16.924;2023-04-15T01:57:11;31.30;;;9.02;;
21800;SDS011;11062;51.164;16.924;2023-04-15T01:59:37;20.60;;;9.05;;
21800;SDS011;11062;51.164;16.924;2023-04-15T02:02:03;27.00;;;9.57;;
21800;SDS011;11062;51.164;16.924;2023-04-15T02:04:29;18.10;;;8.90;;
21800;SDS011;11062;51.164;16.924;2023-04-15T02:06:55;20.00;;;9.63;;
21800;SDS011;11062;51.164;16.924;2023-04-15T02:09:21;44.67;;;11.07;;
21800;SDS011;11062;51.164;16.924;2023-04-15T02:11:47;26.10;;;9.27;;
21800;SDS011;11062;51.164;16.924;2023-04-15T02:14:13;19.92;;;8.65;;
21800;SDS011;11062;51.164;16.924;2023-04-15T02:16:39;19.35;;;9.48;;
21800;SDS011;11062;51.164;16.924;2023-04-15T02:19:05;26.52;;;9.48;;
21800;SDS011;11062;51.164;16.924;2023-04-15T02:21:31;26.15;;;10.02;;
21800;SDS011;11062;51.164;16.924;2023-04-15T02:23:59;18.05;;;8.63;;
21800;SDS011;11062;51.164;16.924;2023-04-15T02:26:28;21.83;;;9.15;;
21800;SDS011;11062;51.164;16.924;2023-04-15T02:28:56;20.67;;;9.00;;
21800;SDS011;11062;51.164;16.924;2023-04-15T02:31:22;22.48;;;9.00;;
21800;SDS011;11062;51.164;16.924;2023-04-15T02:33:48;33.97;;;10.35;;
21800;SDS011;11062;51.164;16.924;2023-04-15T02:36:15;20.80;;;9.18;;
21800;SDS011;11062;51.164;16.924;2023-04-15T02:38:41;21.63;;;8.98;;
21800;SDS011;11062;51.164;16.924;2023-04-15T02:41:10;27.02;;;9.70;;
21800;SDS011;11062;51.164;16.924;2023-04-15T02:43:36;19.27;;;9.13;;
21800;SDS011;11062;51.164;16.924;2023-04-15T02:46:05;27.00;;;9.13;;
21800;SDS011;11062;51.164;16.924;2023-04-15T02:48:31;15.07;;;8.02;;
21800;SDS011;11062;51.164;16.924;2023-04-15T02:51:10;20.38;;;8.90;;
21800;SDS011;11062;51.164;16.924;2023-04-15T02:53:48;18.80;;;8.65;;
21800;SDS011;11062;51.164;16.924;2023-04-15T06:59:50;28.35;;;8.05;;
21800;SDS011;11062;51.164;16.924;2023-04-15T07:02:18;13.63;;;2.80;;
21800;SDS011;11062;51.164;16.924;2023-04-15T07:18:41;23.88;;;2.47;;
21800;SDS011;11062;51.164;16.924;2023-04-15T07:22:00;19.02;;;2.13;;
21800;SDS011;11062;51.164;16.924;2023-04-15T07:25:15;25.70;;;2.92;;
21800;SDS011;11062;51.164;16.924;2023-04-15T07:27:43;38.67;;;4.70;;
21800;SDS011;11062;51.164;16.924;2023-04-15T07:30:09;23.45;;;5.75;;
21800;SDS011;11062;51.164;16.924;2023-04-15T07:32:36;50.67;;;8.30;;
21800;SDS011;11062;51.164;16.924;2023-04-15T07:35:02;19.90;;;3.97;;
21800;SDS011;11062;51.164;16.924;2023-04-15T07:37:29;23.77;;;5.65;;
21800;SDS011;11062;51.164;16.924;2023-04-15T07:39:55;17.58;;;3.92;;
21800;SDS011;11062;51.164;16.924;2023-04-15T07:42:20;22.13;;;4.90;;
21800;SDS011;11062;51.164;16.924;2023-04-15T07:44:46;39.17;;;7.05;;
21800;SDS011;11062;51.164;16.924;2023-04-15T07:47:12;16.38;;;3.25;;
21800;SDS011;11062;51.164;16.924;2023-04-15T07:49:38;14.90;;;2.25;;
21800;SDS011;11062;51.164;16.924;2023-04-15T07:52:11;28.92;;;6.38;;
21800;SDS011;11062;51.164;16.924;2023-04-15T07:55:35;17.27;;;3.38;;
21800;SDS011;11062;51.164;16.924;2023-04-15T07:58:03;39.00;;;6.07;;
21800;SDS011;11062;51.164;16.924;2023-04-15T08:00:45;19.05;;;2.92;;
21800;SDS011;11062;51.164;16.924;2023-04-15T08:03:35;15.85;;;2.92;;
21800;SDS011;11062;51.164;16.924;2023-04-15T08:06:44;13.60;;;2.53;;
21800;SDS011;11062;51.164;16.924;2023-04-15T08:10:06;43.75;;;4.63;;
21800;SDS011;11062;51.164;16.924;2023-04-15T08:13:01;12.43;;;2.10;;
21800;SDS011;11062;51.164;16.924;2023-04-15T08:19:09;28.90;;;5.03;;
21800;SDS011;11062;51.164;16.924;2023-04-15T08:21:59;11.45;;;1.88;;
21800;SDS011;11062;51.164;16.924;2023-04-15T08:27:54;23.60;;;3.65;;
21800;SDS011;11062;51.164;16.924;2023-04-15T08:30:35;98.55;;;9.77;;
21800;SDS011;11062;51.164;16.924;2023-04-15T08:33:01;39.72;;;4.65;;
21800;SDS011;11062;51.164;16.924;2023-04-15T08:35:33;19.60;;;3.05;;
21800;SDS011;11062;51.164;16.924;2023-04-15T08:38:03;25.20;;;3.83;;
21800;SDS011;11062;51.164;16.924;2023-04-15T08:40:46;44.03;;;5.57;;
21800;SDS011;11062;51.164;16.924;2023-04-15T08:43:22;36.63;;;3.88;;
21800;SDS011;11062;51.164;16.924;2023-04-15T08:45:52;28.15;;;3.42;;
21800;SDS011;11062;51.164;16.924;2023-04-15T08:48:20;36.70;;;4.28;;
21800;SDS011;11062;51.164;16.924;2023-04-15T08:50:48;52.83;;;5.47;;
21800;SDS011;11062;51.164;16.924;2023-04-15T08:53:16;41.35;;;4.53;;
21800;SDS011;11062;51.164;16.924;2023-04-15T08:55:45;37.58;;;4.32;;
21800;SDS011;11062;51.164;16.924;2023-04-15T08:58:15;48.38;;;4.97;;
21800;SDS011;11062;51.164;16.924;2023-04-15T09:00:42;24.50;;;3.00;;
21800;SDS011;11062;51.164;16.924;2023-04-15T09:03:08;49.30;;;5.10;;
21800;SDS011;11062;51.164;16.924;2023-04-15T09:05:36;43.85;;;4.75;;
21800;SDS011;11062;51.164;16.924;2023-04-15T09:08:03;33.55;;;3.92;;
21800;SDS011;11062;51.164;16.924;2023-04-15T09:10:30;32.50;;;3.28;;
21800;SDS011;11062;51.164;16.924;2023-04-15T09:12:57;18.95;;;2.25;;
21800;SDS011;11062;51.164;16.924;2023-04-15T09:15:26;12.70;;;1.58;;
21800;SDS011;11062;51.164;16.924;2023-04-15T09:17:55;243.10;;;23.00;;
21800;SDS011;11062;51.164;16.924;2023-04-15T09:20:21;14.45;;;2.05;;
21800;SDS011;11062;51.164;16.924;2023-04-15T09:22:56;4.93;;;1.17;;
21800;SDS011;11062;51.164;16.924;2023-04-15T09:25:31;38.92;;;3.88;;
21800;SDS011;11062;51.164;16.924;2023-04-15T09:31:01;288.15;;;97.45;;
21800;SDS011;11062;51.164;16.924;2023-04-15T09:33:34;309.27;;;103.30;;
21800;SDS011;11062;51.164;16.924;2023-04-15T09:36:19;287.60;;;100.85;;
21800;SDS011;11062;51.164;16.924;2023-04-15T09:38:58;296.42;;;101.93;;
21800;SDS011;11062;51.164;16.924;2023-04-15T09:41:43;307.08;;;98.93;;
21800;SDS011;11062;51.164;16.924;2023-04-15T09:44:22;276.30;;;93.20;;
21800;SDS011;11062;51.164;16.924;2023-04-15T09:46:49;301.02;;;107.28;;
21800;SDS011;11062;51.164;16.924;2023-04-15T09:49:17;303.48;;;102.75;;
21800;SDS011;11062;51.164;16.924;2023-04-15T09:51:44;313.25;;;110.82;;
21800;SDS011;11062;51.164;16.924;2023-04-15T09:54:20;300.50;;;110.15;;
21800;SDS011;11062;51.164;16.924;2023-04-15T09:56:46;300.27;;;109.68;;
21800;SDS011;11062;51.164;16.924;2023-04-15T09:59:12;290.95;;;108.85;;
21800;SDS011;11062;51.164;16.924;2023-04-15T10:01:38;292.08;;;109.13;;
21800;SDS011;11062;51.164;16.924;2023-04-15T10:04:06;304.70;;;109.43;;
21800;SDS011;11062;51.164;16.924;2023-04-15T10:06:37;299.38;;;114.43;;
21800;SDS011;11062;51.164;16.924;2023-04-15T10:09:04;285.40;;;99.65;;
21800;SDS011;11062;51.164;16.924;2023-04-15T10:11:31;289.27;;;98.25;;
21800;SDS011;11062;51.164;16.924;2023-04-15T10:14:03;303.83;;;104.57;;
21800;SDS011;11062;51.164;16.924;2023-04-15T10:16:30;277.13;;;94.07;;
21800;SDS011;11062;51.164;16.924;2023-04-15T10:18:57;298.20;;;116.85;;
21800;SDS011;11062;51.164;16.924;2023-04-15T10:21:26;289.83;;;99.45;;
21800;SDS011;11062;51.164;16.924;2023-04-15T10:23:54;307.92;;;107.50;;
21800;SDS011;11062;51.164;16.924;2023-04-15T10:26:21;314.73;;;100.93;;
21800;SDS011;11062;51.164;16.924;2023-04-15T10:28:47;300.23;;;101.40;;
21800;SDS011;11062;51.164;16.924;2023-04-15T10:31:14;310.75;;;112.07;;
21800;SDS011;11062;51.164;16.924;2023-04-15T10:33:43;310.70;;;118.63;;
21800;SDS011;11062;51.164;16.924;2023-04-15T10:36:12;309.40;;;106.55;;
21800;SDS011;11062;51.164;16.924;2023-04-15T10:38:43;311.02;;;107.85;;
21800;SDS011;11062;51.164;16.924;2023-04-15T10:41:11;312.30;;;106.07;;
21800;SDS011;11062;51.164;16.924;2023-04-15T10:43:47;313.08;;;105.13;;
21800;SDS011;11062;51.164;16.924;2023-04-15T10:46:17;325.25;;;112.57;;
21800;SDS011;11062;51.164;16.924;2023-04-15T10:48:51;332.77;;;109.30;;
21800;SDS011;11062;51.164;16.924;2023-04-15T10:51:28;337.17;;;113.63;;
21800;SDS011;11062;51.164;16.924;2023-04-15T10:53:55;321.63;;;117.20;;
21800;SDS011;11062;51.164;16.924;2023-04-15T10:56:24;324.52;;;112.97;;
21800;SDS011;11062;51.164;16.924;2023-04-15T10:58:52;330.52;;;114.13;;
21800;SDS011;11062;51.164;16.924;2023-04-15T11:12:51;313.02;;;109.30;;
21800;SDS011;11062;51.164;16.924;2023-04-15T11:15:30;310.58;;;110.80;;
21800;SDS011;11062;51.164;16.924;2023-04-15T11:18:14;303.17;;;108.00;;
21800;SDS011;11062;51.164;16.924;2023-04-15T11:20:51;302.92;;;108.93;;
21800;SDS011;11062;51.164;16.924;2023-04-15T11:23:32;329.30;;;111.55;;
21800;SDS011;11062;51.164;16.924;2023-04-15T11:26:12;311.67;;;111.97;;
21800;SDS011;11062;51.164;16.924;2023-04-15T11:28:40;317.65;;;109.47;;
21800;SDS011;11062;51.164;16.924;2023-04-15T11:31:10;318.45;;;112.40;;
21800;SDS011;11062;51.164;16.924;2023-04-15T11:33:43;311.88;;;113.78;;
21800;SDS011;11062;51.164;16.924;2023-04-15T11:36:11;302.30;;;109.90;;
21800;SDS011;11062;51.164;16.924;2023-04-15T11:38:45;317.08;;;121.40;;
21800;SDS011;11062;51.164;16.924;2023-04-15T11:41:11;304.90;;;112.20;;
21800;SDS011;11062;51.164;16.924;2023-04-15T11:43:37;330.42;;;119.78;;
21800;SDS011;11062;51.164;16.924;2023-04-15T11:46:03;326.23;;;118.68;;
21800;SDS011;11062;51.164;16.924;2023-04-15T11:48:33;308.90;;;115.82;;
21800;SDS011;11062;51.164;16.924;2023-04-15T11:51:03;309.95;;;112.43;;
21800;SDS011;11062;51.164;16.924;2023-04-15T11:53:43;318.40;;;116.88;;
21800;SDS011;11062;51.164;16.924;2023-04-15T11:56:18;328.35;;;118.00;;
21800;SDS011;11062;51.164;16.924;2023-04-15T11:58:49;310.38;;;114.13;;
21800;SDS011;11062;51.164;16.924;2023-04-15T12:01:17;313.85;;;120.93;;
21800;SDS011;11062;51.164;16.924;2023-04-15T12:03:44;322.30;;;123.03;;
21800;SDS011;11062;51.164;16.924;2023-04-15T12:14:04;330.35;;;116.40;;
21800;SDS011;11062;51.164;16.924;2023-04-15T12:16:36;324.42;;;114.65;;
21800;SDS011;11062;51.164;16.924;2023-04-15T12:19:06;328.95;;;118.90;;
21800;SDS011;11062;51.164;16.924;2023-04-15T12:21:36;310.52;;;112.80;;
21800;SDS011;11062;51.164;16.924;2023-04-15T12:24:04;315.50;;;110.47;;
21800;SDS011;11062;51.164;16.924;2023-04-15T12:26:44;310.52;;;108.03;;
21800;SDS011;11062;51.164;16.924;2023-04-15T12:29:12;318.08;;;115.88;;
21800;SDS011;11062;51.164;16.924;2023-04-15T12:34:25;333.50;;;115.30;;
21800;SDS011;11062;51.164;16.924;2023-04-15T12:36:56;314.52;;;107.63;;
21800;SDS011;11062;51.164;16.924;2023-04-15T12:39:23;316.70;;;124.53;;
21800;SDS011;11062;51.164;16.924;2023-04-15T12:41:51;307.33;;;106.70;;
21800;SDS011;11062;51.164;16.924;2023-04-15T12:44:21;318.95;;;111.30;;
21800;SDS011;11062;51.164;16.924;2023-04-15T12:46:48;316.60;;;115.70;;
21800;SDS011;11062;51.164;16.924;2023-04-15T12:49:17;312.40;;;107.45;;
21800;SDS011;11062;51.164;16.924;2023-04-15T12:51:46;313.30;;;108.53;;
21800;SDS011;11062;51.164;16.924;2023-04-15T12:54:17;315.67;;;114.53;;
21800;SDS011;11062;51.164;16.924;2023-04-15T12:56:46;333.90;;;114.25;;
21800;SDS011;11062;51.164;16.924;2023-04-15T12:59:36;323.63;;;115.30;;
21800;SDS011;11062;51.164;16.924;2023-04-15T13:02:03;345.13;;;115.50;;
21800;SDS011;11062;51.164;16.924;2023-04-15T13:04:29;311.70;;;110.30;;
21800;SDS011;11062;51.164;16.924;2023-04-15T13:07:06;325.15;;;114.40;;
21800;SDS011;11062;51.164;16.924;2023-04-15T13:13:04;346.48;;;115.88;;
21800;SDS011;11062;51.164;16.924;2023-04-15T13:15:35;334.52;;;117.60;;
21800;SDS011;11062;51.164;16.924;2023-04-15T13:18:05;323.45;;;113.80;;
21800;SDS011;11062;51.164;16.924;2023-04-15T13:20:34;337.77;;;129.38;;
21800;SDS011;11062;51.164;16.924;2023-04-15T13:23:00;345.30;;;117.30;;
21800;SDS011;11062;51.164;16.924;2023-04-15T13:25:26;324.42;;;114.57;;
21800;SDS011;11062;51.164;16.924;2023-04-15T13:27:52;334.88;;;117.78;;
21800;SDS011;11062;51.164;16.924;2023-04-15T13:30:21;335.30;;;115.32;;
21800;SDS011;11062;51.164;16.924;2023-04-15T13:32:48;325.40;;;112.32;;
21800;SDS011;11062;51.164;16.924;2023-04-15T13:35:15;330.02;;;115.75;;
21800;SDS011;11062;51.164;16.924;2023-04-15T13:37:41;349.90;;;128.02;;
21800;SDS011;11062;51.164;16.924;2023-04-15T13:40:07;341.00;;;123.47;;
21800;SDS011;11062;51.164;16.924;2023-04-15T13:42:34;340.33;;;124.85;;
21800;SDS011;11062;51.164;16.924;2023-04-15T13:45:00;346.17;;;130.18;;
21800;SDS011;11062;51.164;16.924;2023-04-15T13:47:26;357.92;;;133.40;;
21800;SDS011;11062;51.164;16.924;2023-04-15T13:49:52;351.00;;;131.27;;
21800;SDS011;11062;51.164;16.924;2023-04-15T13:52:21;356.38;;;138.10;;
21800;SDS011;11062;51.164;16.924;2023-04-15T13:54:48;379.00;;;139.32;;
21800;SDS011;11062;51.164;16.924;2023-04-15T13:57:14;352.23;;;146.43;;
21800;SDS011;11062;51.164;16.924;2023-04-15T13:59:40;376.92;;;148.63;;
21800;SDS011;11062;51.164;16.924;2023-04-15T14:02:08;357.02;;;150.50;;
21800;SDS011;11062;51.164;16.924;2023-04-15T14:04:34;345.48;;;151.90;;
21800;SDS011;11062;51.164;16.924;2023-04-15T14:07:03;346.58;;;156.52;;
21800;SDS011;11062;51.164;16.924;2023-04-15T14:09:33;343.30;;;158.93;;
21800;SDS011;11062;51.164;16.924;2023-04-15T14:14:31;347.33;;;154.65;;
21800;SDS011;11062;51.164;16.924;2023-04-15T14:16:57;346.85;;;152.95;;
21800;SDS011;11062;51.164;16.924;2023-04-15T14:19:25;342.33;;;158.32;;
21800;SDS011;11062;51.164;16.924;2023-04-15T14:21:54;350.08;;;166.15;;
21800;SDS011;11062;51.164;16.924;2023-04-15T14:24:23;369.17;;;174.70;;
21800;SDS011;11062;51.164;16.924;2023-04-15T14:26:52;354.08;;;190.52;;
21800;SDS011;11062;51.164;16.924;2023-04-15T14:29:22;362.35;;;183.35;;
21800;SDS011;11062;51.164;16.924;2023-04-15T14:31:51;387.38;;;178.00;;
21800;SDS011;11062;51.164;16.924;2023-04-15T14:34:22;366.42;;;170.68;;
21800;SDS011;11062;51.164;16.924;2023-04-15T14:36:50;356.45;;;163.23;;
21800;SDS011;11062;51.164;16.924;2023-04-15T14:39:27;361.00;;;165.82;;
21800;SDS011;11062;51.164;16.924;2023-04-15T14:41:56;370.98;;;166.23;;
21800;SDS011;11062;51.164;16.924;2023-04-15T14:44:22;360.20;;;163.27;;
21800;SDS011;11062;51.164;16.924;2023-04-15T14:46:49;402.00;;;165.45;;
21800;SDS011;11062;51.164;16.924;2023-04-15T14:49:18;348.75;;;145.88;;
21800;SDS011;11062;51.164;16.924;2023-04-15T14:51:45;360.17;;;146.80;;
21800;SDS011;11062;51.164;16.924;2023-04-15T14:54:11;385.25;;;150.32;;
21800;SDS011;11062;51.164;16.924;2023-04-15T14:56:37;392.45;;;153.02;;
21800;SDS011;11062;51.164;16.924;2023-04-15T14:59:03;355.48;;;144.73;;
21800;SDS011;11062;51.164;16.924;2023-04-15T15:01:29;346.23;;;154.40;;
21800;SDS011;11062;51.164;16.924;2023-04-15T15:03:58;336.58;;;150.57;;
21800;SDS011;11062;51.164;16.924;2023-04-15T15:06:26;342.73;;;149.43;;
21800;SDS011;11062;51.164;16.924;2023-04-15T15:08:52;365.85;;;150.55;;
21800;SDS011;11062;51.164;16.924;2023-04-15T15:11:25;356.60;;;152.93;;
21800;SDS011;11062;51.164;16.924;2023-04-15T15:13:54;344.83;;;154.63;;
21800;SDS011;11062;51.164;16.924;2023-04-15T15:16:21;335.98;;;144.57;;
21800;SDS011;11062;51.164;16.924;2023-04-15T15:18:47;347.08;;;150.90;;
21800;SDS011;11062;51.164;16.924;2023-04-15T15:21:16;364.00;;;149.70;;
21800;SDS011;11062;51.164;16.924;2023-04-15T15:23:43;358.88;;;145.73;;
21800;SDS011;11062;51.164;16.924;2023-04-15T15:26:12;367.50;;;142.45;;
21800;SDS011;11062;51.164;16.924;2023-04-15T15:28:39;370.88;;;139.10;;
21800;SDS011;11062;51.164;16.924;2023-04-15T15:31:06;360.83;;;135.77;;
21800;SDS011;11062;51.164;16.924;2023-04-15T15:33:32;353.33;;;139.65;;
21800;SDS011;11062;51.164;16.924;2023-04-15T15:35:58;354.55;;;132.50;;
21800;SDS011;11062;51.164;16.924;2023-04-15T15:38:24;355.60;;;138.10;;
21800;SDS011;11062;51.164;16.924;2023-04-15T15:40:50;362.55;;;137.55;;
21800;SDS011;11062;51.164;16.924;2023-04-15T15:43:19;366.30;;;138.70;;
21800;SDS011;11062;51.164;16.924;2023-04-15T15:45:45;358.45;;;133.15;;
21800;SDS011;11062;51.164;16.924;2023-04-15T15:48:11;341.40;;;136.20;;
21800;SDS011;11062;51.164;16.924;2023-04-15T15:50:37;327.98;;;141.43;;
21800;SDS011;11062;51.164;16.924;2023-04-15T15:53:03;330.33;;;135.70;;
21800;SDS011;11062;51.164;16.924;2023-04-15T15:55:29;364.15;;;141.10;;
21800;SDS011;11062;51.164;16.924;2023-04-15T15:57:55;352.55;;;132.43;;
21800;SDS011;11062;51.164;16.924;2023-04-15T16:00:21;356.63;;;128.55;;
21800;SDS011;11062;51.164;16.924;2023-04-15T16:02:47;336.63;;;121.03;;
21800;SDS011;11062;51.164;16.924;2023-04-15T16:05:13;326.63;;;124.43;;
21800;SDS011;11062;51.164;16.924;2023-04-15T16:07:40;337.90;;;125.57;;
21800;SDS011;11062;51.164;16.924;2023-04-15T16:10:10;340.00;;;122.13;;
21800;SDS011;11062;51.164;16.924;2023-04-15T16:12:40;335.70;;;123.90;;
21800;SDS011;11062;51.164;16.924;2023-04-15T16:15:08;335.70;;;122.85;;
21800;SDS011;11062;51.164;16.924;2023-04-15T16:17:35;333.70;;;127.18;;
21800;SDS011;11062;51.164;16.924;2023-04-15T16:20:01;358.52;;;129.43;;
21800;SDS011;11062;51.164;16.924;2023-04-15T16:22:34;341.55;;;125.75;;
21800;SDS011;11062;51.164;16.924;2023-04-15T16:25:01;371.25;;;129.20;;
21800;SDS011;11062;51.164;16.924;2023-04-15T16:27:30;348.23;;;124.00;;
21800;SDS011;11062;51.164;16.924;2023-04-15T16:29:57;364.05;;;128.30;;
21800;SDS011;11062;51.164;16.924;2023-04-15T16:32:24;357.63;;;128.82;;
21800;SDS011;11062;51.164;16.924;2023-04-15T16:34:51;360.52;;;120.97;;
21800;SDS011;11062;51.164;16.924;2023-04-15T16:37:17;364.77;;;125.93;;
21800;SDS011;11062;51.164;16.924;2023-04-15T16:39:44;341.95;;;119.38;;
21800;SDS011;11062;51.164;16.924;2023-04-15T16:42:10;366.35;;;127.15;;
21800;SDS011;11062;51.164;16.924;2023-04-15T16:44:36;339.17;;;118.22;;
21800;SDS011;11062;51.164;16.924;2023-04-15T16:47:03;349.65;;;120.93;;
21800;SDS011;11062;51.164;16.924;2023-04-15T16:49:33;341.85;;;116.00;;
21800;SDS011;11062;51.164;16.924;2023-04-15T16:52:11;368.92;;;129.82;;
21800;SDS011;11062;51.164;16.924;2023-04-15T16:57:12;354.35;;;116.55;;
21800;SDS011;11062;51.164;16.924;2023-04-15T16:59:37;351.65;;;117.78;;
21800;SDS011;11062;51.164;16.924;2023-04-15T17:02:03;372.42;;;122.30;;
21800;SDS011;11062;51.164;16.924;2023-04-15T17:04:29;368.88;;;119.97;;
21800;SDS011;11062;51.164;16.924;2023-04-15T17:06:55;349.40;;;116.57;;
21800;SDS011;11062;51.164;16.924;2023-04-15T17:09:21;350.02;;;120.38;;
21800;SDS011;11062;51.164;16.924;2023-04-15T17:11:47;351.65;;;115.32;;
21800;SDS011;11062;51.164;16.924;2023-04-15T17:14:13;335.25;;;116.28;;
21800;SDS011;11062;51.164;16.924;2023-04-15T17:16:38;345.52;;;115.30;;
21800;SDS011;11062;51.164;16.924;2023-04-15T17:19:05;337.23;;;111.68;;
21800;SDS011;11062;51.164;16.924;2023-04-15T17:21:33;327.95;;;112.55;;
21800;SDS011;11062;51.164;16.924;2023-04-15T17:23:59;348.02;;;113.35;;
21800;SDS011;11062;51.164;16.924;2023-04-15T17:26:24;353.05;;;112.05;;
21800;SDS011;11062;51.164;16.924;2023-04-15T17:28:50;348.67;;;116.88;;
21800;SDS011;11062;51.164;16.924;2023-04-15T17:31:16;348.45;;;113.45;;
21800;SDS011;11062;51.164;16.924;2023-04-15T17:33:42;337.58;;;112.65;;
21800;SDS011;11062;51.164;16.924;2023-04-15T17:36:09;332.50;;;110.18;;
21800;SDS011;11062;51.164;16.924;2023-04-15T17:38:35;332.48;;;110.95;;
21800;SDS011;11062;51.164;16.924;2023-04-15T17:41:00;343.88;;;111.40;;
21800;SDS011;11062;51.164;16.924;2023-04-15T17:43:26;354.77;;;112.30;;
21800;SDS011;11062;51.164;16.924;2023-04-15T17:45:55;343.05;;;108.30;;
21800;SDS011;11062;51.164;16.924;2023-04-15T17:48:21;345.25;;;110.55;;
21800;SDS011;11062;51.164;16.924;2023-04-15T17:53:25;350.83;;;108.78;;
21800;SDS011;11062;51.164;16.924;2023-04-15T17:55:51;377.35;;;118.55;;
21800;SDS011;11062;51.164;16.924;2023-04-15T17:58:18;344.73;;;112.65;;
21800;SDS011;11062;51.164;16.924;2023-04-15T18:03:12;326.65;;;107.88;;
21800;SDS011;11062;51.164;16.924;2023-04-15T18:05:38;343.92;;;111.95;;
21800;SDS011;11062;51.164;16.924;2023-04-15T18:08:05;346.90;;;113.65;;
21800;SDS011;11062;51.164;16.924;2023-04-15T18:10:37;318.80;;;106.30;;
21800;SDS011;11062;51.164;16.924;2023-04-15T18:13:03;348.25;;;112.28;;
21800;SDS011;11062;51.164;16.924;2023-04-15T18:15:33;340.75;;;112.20;;
21800;SDS011;11062;51.164;16.924;2023-04-15T18:17:59;327.88;;;107.72;;
21800;SDS011;11062;51.164;16.924;2023-04-15T18:20:29;323.35;;;107.93;;
21800;SDS011;11062;51.164;16.924;2023-04-15T18:22:57;337.58;;;108.03;;
21800;SDS011;11062;51.164;16.924;2023-04-15T18:25:24;341.00;;;111.55;;
21800;SDS011;11062;51.164;16.924;2023-04-15T18:27:50;358.58;;;113.60;;
21800;SDS011;11062;51.164;16.924;2023-04-15T18:30:16;320.08;;;107.95;;
21800;SDS011;11062;51.164;16.924;2023-04-15T18:32:42;336.25;;;109.93;;
21800;SDS011;11062;51.164;16.924;2023-04-15T18:35:14;324.45;;;108.90;;
21800;SDS011;11062;51.164;16.924;2023-04-15T18:37:44;316.92;;;108.50;;
21800;SDS011;11062;51.164;16.924;2023-04-15T18:40:13;329.65;;;107.82;;
21800;SDS011;11062;51.164;16.924;2023-04-15T18:42:40;322.60;;;106.57;;
21800;SDS011;11062;51.164;16.924;2023-04-15T18:45:27;328.98;;;111.00;;
21800;SDS011;11062;51.164;16.924;2023-04-15T18:48:00;350.90;;;111.13;;
21800;SDS011;11062;51.164;16.924;2023-04-15T18:50:27;326.08;;;105.85;;
21800;SDS011;11062;51.164;16.924;2023-04-15T18:53:00;331.90;;;112.80;;
21800;SDS011;11062;51.164;16.924;2023-04-15T18:55:37;334.60;;;109.20;;
21800;SDS011;11062;51.164;16.924;2023-04-15T18:58:06;329.98;;;111.47;;
21800;SDS011;11062;51.164;16.924;2023-04-15T19:00:55;349.05;;;111.93;;
21800;SDS011;11062;51.164;16.924;2023-04-15T19:03:24;326.30;;;109.95;;
21800;SDS011;11062;51.164;16.924;2023-04-15T19:05:53;329.90;;;108.82;;
21800;SDS011;11062;51.164;16.924;2023-04-15T19:08:48;336.58;;;109.25;;
21800;SDS011;11062;51.164;16.924;2023-04-15T19:11:16;334.33;;;108.95;;
21800;SDS011;11062;51.164;16.924;2023-04-15T19:13:44;320.20;;;106.47;;